createdAt,value
2023-03-29T00:01:35.139Z,2.28
2023-03-29T00:04:38.246Z,2.75
2023-03-29T00:07:40.144Z,2.10
2023-03-29T00:10:41.922Z,2.50
2023-03-29T00:13:43.742Z,2.22
2023-03-29T00:16:47.082Z,2.13
2023-03-29T00:19:48.904Z,2.33
2023-03-29T00:22:50.592Z,2.75
2023-03-29T00:25:53.224Z,2.80
2023-03-29T00:28:54.916Z,1.98
2023-03-29T00:31:58.256Z,2.22
2023-03-29T00:35:00.858Z,2.10
2023-03-29T00:38:02.554Z,2.63
2023-03-29T00:41:05.645Z,3.42
2023-03-29T00:44:22.188Z,2.95
2023-03-29T00:47:29.796Z,3.90
2023-03-29T00:50:36.062Z,4.22
2023-03-29T00:53:41.349Z,3.63
2023-03-29T00:56:47.449Z,2.65
2023-03-29T00:59:51.803Z,2.92
2023-03-29T01:06:04.917Z,1.70
2023-03-29T01:09:11.178Z,2.00
2023-03-29T01:12:17.184Z,1.70
2023-03-29T01:15:22.561Z,2.45
2023-03-29T01:18:25.740Z,1.55
2023-03-29T01:21:33.034Z,2.38
2023-03-29T01:24:53.440Z,2.00
2023-03-29T01:28:01.869Z,1.77
2023-03-29T01:31:07.720Z,1.90
2023-03-29T01:34:14.828Z,1.58
2023-03-29T01:37:22.306Z,1.83
2023-03-29T01:40:24.772Z,2.10
2023-03-29T01:43:34.252Z,1.80
2023-03-29T01:46:41.975Z,2.35
2023-03-29T01:49:49.538Z,1.70
2023-03-29T01:52:57.239Z,2.00
2023-03-29T01:56:05.579Z,2.47
2023-03-29T01:59:12.986Z,2.67
2023-03-29T02:02:17.186Z,2.88
2023-03-29T02:08:22.520Z,2.97
2023-03-29T02:11:26.113Z,4.45
2023-03-29T02:14:29.193Z,4.38
2023-03-29T02:17:30.917Z,5.90
2023-03-29T02:20:35.541Z,7.38
2023-03-29T02:23:41.160Z,6.95
2023-03-29T02:26:43.026Z,6.15
2023-03-29T02:29:46.174Z,5.80
2023-03-29T02:32:54.362Z,7.30
2023-03-29T02:36:00.177Z,6.38
2023-03-29T02:39:03.628Z,6.47
2023-03-29T02:42:06.351Z,6.63
2023-03-29T02:45:13.017Z,6.60
2023-03-29T02:48:18.211Z,6.22
2023-03-29T02:51:22.398Z,6.53
2023-03-29T02:54:27.284Z,6.25
2023-03-29T02:57:29.386Z,6.05
2023-03-29T03:00:32.737Z,5.38
2023-03-29T03:03:34.563Z,5.85
2023-03-29T03:06:36.681Z,5.63
2023-03-29T03:09:38.448Z,5.85
2023-03-29T03:12:40.411Z,6.25
2023-03-29T03:15:43.460Z,6.88
2023-03-29T03:18:45.156Z,6.60
2023-03-29T03:21:47.322Z,6.45
2023-03-29T03:24:49.051Z,6.22
2023-03-29T03:27:51.477Z,7.32
2023-03-29T03:30:54.604Z,6.75
2023-03-29T03:33:56.525Z,5.55
2023-03-29T03:36:58.243Z,6.22
2023-03-29T03:40:00.261Z,7.07
2023-03-29T03:43:02.199Z,7.43
2023-03-29T03:46:06.088Z,7.38
2023-03-29T03:49:07.827Z,6.65
2023-03-29T03:52:09.540Z,6.80
2023-03-29T03:55:11.404Z,6.75
2023-03-29T03:58:13.089Z,7.18
2023-03-29T04:01:16.154Z,8.18
2023-03-29T04:04:17.843Z,6.32
2023-03-29T04:07:19.626Z,8.25
2023-03-29T04:10:21.319Z,8.52
2023-03-29T04:13:23.612Z,8.18
2023-03-29T04:16:26.780Z,7.40
2023-03-29T04:19:28.477Z,7.95
2023-03-29T04:22:30.242Z,8.48
2023-03-29T04:25:31.946Z,8.23
2023-03-29T04:28:33.683Z,7.47
2023-03-29T04:31:36.869Z,8.90
2023-03-29T04:34:38.796Z,9.93
2023-03-29T04:37:41.112Z,9.32
2023-03-29T04:40:42.830Z,7.53
2023-03-29T04:43:44.787Z,9.38
2023-03-29T04:46:47.865Z,7.65
2023-03-29T04:49:49.703Z,7.80
2023-03-29T04:52:51.496Z,9.20
2023-03-29T04:55:53.199Z,8.70
2023-03-29T04:58:54.888Z,8.77
2023-03-29T05:01:59.529Z,10.35
2023-03-29T05:05:01.239Z,9.27
2023-03-29T05:08:03.039Z,9.25
2023-03-29T05:11:05.983Z,8.90
2023-03-29T05:14:07.687Z,9.10
2023-03-29T05:17:10.773Z,11.57
2023-03-29T05:20:13.287Z,11.43
2023-03-29T05:23:15.020Z,9.02
2023-03-29T05:26:16.917Z,9.90
2023-03-29T05:29:18.829Z,12.52
2023-03-29T05:32:21.900Z,13.95
2023-03-29T05:35:23.590Z,12.20
2023-03-29T05:38:25.292Z,12.60
2023-03-29T05:41:27.004Z,13.88
2023-03-29T05:44:28.777Z,13.32
2023-03-29T05:47:31.922Z,13.25
2023-03-29T05:50:33.641Z,11.98
2023-03-29T05:53:35.364Z,10.40
2023-03-29T05:56:37.109Z,8.98
2023-03-29T05:59:38.805Z,10.43
2023-03-29T06:02:41.981Z,10.38
2023-03-29T06:05:43.751Z,8.95
2023-03-29T06:08:45.629Z,8.20
2023-03-29T06:11:47.377Z,6.88
2023-03-29T06:14:49.095Z,6.88
2023-03-29T06:17:52.239Z,6.90
2023-03-29T06:20:53.974Z,7.03
2023-03-29T06:23:56.161Z,4.80
2023-03-29T06:26:57.910Z,4.72
2023-03-29T06:29:59.631Z,4.13
2023-03-29T06:33:02.792Z,3.20
2023-03-29T06:36:05.257Z,3.28
2023-03-29T06:39:06.923Z,3.35
2023-03-29T06:42:20.016Z,2.80
2023-03-29T06:45:24.337Z,2.70
2023-03-29T06:48:28.522Z,4.13
2023-03-29T06:51:30.190Z,3.15
2023-03-29T06:54:32.084Z,3.20
2023-03-29T06:57:33.825Z,4.25
2023-03-29T07:00:35.754Z,5.13
2023-03-29T07:03:39.203Z,11.32
2023-03-29T07:06:41.260Z,5.72
2023-03-29T07:09:42.990Z,5.45
2023-03-29T07:12:44.720Z,6.13
2023-03-29T07:15:46.461Z,9.07
2023-03-29T07:18:49.578Z,8.35
2023-03-29T07:21:52.341Z,9.02
2023-03-29T07:24:54.061Z,9.52
2023-03-29T07:27:55.746Z,8.63
2023-03-29T07:31:02.928Z,6.97
2023-03-29T07:34:06.148Z,6.75
2023-03-29T07:37:07.822Z,5.65
2023-03-29T07:40:11.445Z,5.63
2023-03-29T07:43:13.124Z,4.82
2023-03-29T07:46:14.866Z,6.57
2023-03-29T07:49:19.250Z,7.00
2023-03-29T07:52:22.059Z,5.10
2023-03-29T07:55:23.737Z,5.72
2023-03-29T07:58:25.454Z,4.90
2023-03-29T08:01:27.785Z,5.07
2023-03-29T08:04:31.217Z,5.93
2023-03-29T08:07:33.259Z,5.75
2023-03-29T08:10:36.627Z,5.45
2023-03-29T08:13:38.678Z,6.30
2023-03-29T08:16:40.526Z,6.55
2023-03-29T08:19:50.812Z,6.78
2023-03-29T08:22:54.520Z,6.30
2023-03-29T08:25:56.220Z,6.00
2023-03-29T08:28:57.983Z,6.15
2023-03-29T08:31:59.640Z,4.60
2023-03-29T08:35:03.329Z,5.43
2023-03-29T08:38:05.382Z,7.35
2023-03-29T08:41:22.225Z,6.63
2023-03-29T08:44:46.657Z,6.45
2023-03-29T08:47:59.645Z,5.53
2023-03-29T08:51:09.283Z,5.85
2023-03-29T08:54:16.897Z,5.70
2023-03-29T08:57:24.383Z,7.35
2023-03-29T09:00:34.858Z,6.32
2023-03-29T09:03:40.858Z,4.45
2023-03-29T09:06:44.412Z,5.18
2023-03-29T09:09:46.163Z,4.43
2023-03-29T09:13:06.934Z,4.55
2023-03-29T09:16:17.447Z,5.18
2023-03-29T09:19:26.984Z,4.78
2023-03-29T09:22:40.799Z,2.80
2023-03-29T09:25:54.251Z,3.45
2023-03-29T09:29:07.728Z,3.55
2023-03-29T09:32:19.411Z,3.28
2023-03-29T09:35:27.598Z,3.35
2023-03-29T09:38:31.666Z,4.82
2023-03-29T09:41:36.447Z,6.47
2023-03-29T09:44:41.578Z,4.65
2023-03-29T09:47:48.618Z,3.75
2023-03-29T09:50:51.848Z,3.95
2023-03-29T09:53:56.646Z,2.90
2023-03-29T09:56:58.889Z,2.17
2023-03-29T10:00:01.841Z,2.50
2023-03-29T10:03:04.011Z,2.58
2023-03-29T10:06:09.923Z,2.63
2023-03-29T10:09:17.644Z,2.33
2023-03-29T10:12:20.489Z,2.72
2023-03-29T10:15:29.690Z,2.60
2023-03-29T10:21:34.207Z,2.65
2023-03-29T10:24:37.331Z,2.20
2023-03-29T10:27:42.541Z,2.88
2023-03-29T10:30:52.804Z,2.47
2023-03-29T10:33:57.107Z,2.40
2023-03-29T10:37:01.121Z,2.13
2023-03-29T10:40:05.926Z,2.65
2023-03-29T10:43:13.996Z,3.72
2023-03-29T10:46:21.002Z,2.45
2023-03-29T10:49:23.658Z,2.85
2023-03-29T10:52:26.273Z,2.83
2023-03-29T10:55:34.736Z,3.55
2023-03-29T10:58:48.428Z,3.65
2023-03-29T11:02:05.579Z,3.58
2023-03-29T11:05:21.729Z,3.00
2023-03-29T11:08:43.066Z,2.47
2023-03-29T11:12:14.436Z,3.10
2023-03-29T11:15:31.647Z,3.55
2023-03-29T11:18:55.198Z,3.22
2023-03-29T11:22:04.960Z,2.80
2023-03-29T11:25:20.462Z,2.25
2023-03-29T11:28:33.256Z,2.92
2023-03-29T11:31:40.852Z,2.70
2023-03-29T11:34:58.449Z,2.30
2023-03-29T11:38:05.695Z,2.75
2023-03-29T11:41:15.692Z,2.58
2023-03-29T11:44:22.543Z,3.08
2023-03-29T11:47:29.332Z,3.03
2023-03-29T11:50:39.421Z,3.25
2023-03-29T11:53:50.681Z,1.90
2023-03-29T11:56:57.215Z,2.55
2023-03-29T12:00:04.479Z,2.47
2023-03-29T12:03:13.198Z,2.95
2023-03-29T12:06:21.182Z,3.30
2023-03-29T12:09:33.906Z,3.25
2023-03-29T12:12:46.102Z,3.88
2023-03-29T12:15:54.036Z,2.60
2023-03-29T12:18:59.273Z,3.13
2023-03-29T12:22:01.982Z,2.92
2023-03-29T12:25:06.307Z,2.70
2023-03-29T12:28:22.878Z,2.50
2023-03-29T12:31:34.085Z,2.85
2023-03-29T12:34:59.151Z,2.42
2023-03-29T12:38:09.496Z,3.10
2023-03-29T12:41:17.543Z,3.58
2023-03-29T12:44:23.148Z,2.53
2023-03-29T12:47:32.239Z,2.88
2023-03-29T12:50:35.652Z,2.50
2023-03-29T12:53:39.814Z,2.67
2023-03-29T12:56:54.185Z,2.65
2023-03-29T12:59:56.265Z,2.50
2023-03-29T13:03:04.470Z,2.58
2023-03-29T13:06:08.686Z,3.08
2023-03-29T13:09:21.546Z,2.97
2023-03-29T13:12:26.668Z,2.50
2023-03-29T13:15:33.636Z,2.40
2023-03-29T13:18:53.511Z,2.85
2023-03-29T13:22:08.295Z,2.90
2023-03-29T13:25:24.422Z,3.42
2023-03-29T13:28:37.588Z,2.78
2023-03-29T13:31:44.202Z,2.60
2023-03-29T13:34:53.209Z,2.53
2023-03-29T13:38:04.755Z,2.85
2023-03-29T13:41:25.656Z,2.60
2023-03-29T13:44:33.848Z,2.63
2023-03-29T13:47:46.709Z,2.58
2023-03-29T13:51:00.820Z,2.45
2023-03-29T13:54:11.154Z,3.15
2023-03-29T13:57:16.924Z,2.70
2023-03-29T14:00:23.424Z,2.70
2023-03-29T14:03:26.778Z,2.47
2023-03-29T14:06:32.950Z,2.55
2023-03-29T14:09:40.669Z,2.42
2023-03-29T14:12:42.750Z,2.50
2023-03-29T14:15:49.314Z,3.20
2023-03-29T14:18:51.046Z,2.88
2023-03-29T14:21:54.279Z,2.95
2023-03-29T14:24:56.383Z,3.35
2023-03-29T14:27:58.125Z,3.45
2023-03-29T14:31:00.032Z,2.97
2023-03-29T14:34:03.466Z,2.63
2023-03-29T14:37:07.556Z,2.85
2023-03-29T14:40:17.634Z,2.67
2023-03-29T14:43:21.380Z,2.30
2023-03-29T14:49:25.132Z,2.28
2023-03-29T14:52:29.578Z,2.40
2023-03-29T14:55:31.905Z,2.42
2023-03-29T14:58:35.752Z,2.85
2023-03-29T15:01:44.248Z,3.30
2023-03-29T15:04:55.641Z,2.90
2023-03-29T15:07:59.369Z,2.70
2023-03-29T15:14:05.335Z,2.60
2023-03-29T15:17:33.528Z,2.78
2023-03-29T15:20:45.358Z,7.95
2023-03-29T15:23:53.031Z,3.60
2023-03-29T15:27:00.034Z,3.55
2023-03-29T15:30:01.785Z,3.00
2023-03-29T15:33:15.024Z,3.38
2023-03-29T15:36:16.893Z,3.63
2023-03-29T15:39:20.579Z,3.30
2023-03-29T15:42:22.963Z,2.85
2023-03-29T15:45:24.621Z,2.70
2023-03-29T15:48:28.296Z,3.35
2023-03-29T15:54:32.969Z,2.90
2023-03-29T15:57:35.794Z,2.97
2023-03-29T16:00:39.176Z,3.20
2023-03-29T16:03:41.103Z,2.80
2023-03-29T16:06:44.216Z,3.08
2023-03-29T16:09:47.311Z,2.92
2023-03-29T16:12:49.056Z,3.03
2023-03-29T16:15:50.789Z,4.00
2023-03-29T16:18:52.550Z,2.90
2023-03-29T16:21:54.444Z,3.88
2023-03-29T16:24:57.566Z,4.60
2023-03-29T16:27:59.421Z,3.35
2023-03-29T16:31:01.194Z,3.72
2023-03-29T16:34:03.131Z,3.35
2023-03-29T16:37:04.879Z,3.00
2023-03-29T16:40:09.094Z,3.47
2023-03-29T16:43:14.886Z,4.10
2023-03-29T16:46:16.783Z,5.03
2023-03-29T16:49:18.861Z,5.22
2023-03-29T16:52:20.793Z,5.90
2023-03-29T16:55:23.952Z,4.88
2023-03-29T16:58:26.426Z,6.53
2023-03-29T17:01:28.456Z,7.70
2023-03-29T17:04:30.334Z,7.68
2023-03-29T17:07:32.065Z,9.20
2023-03-29T17:10:35.409Z,8.18
2023-03-29T17:13:37.129Z,8.95
2023-03-29T17:16:38.886Z,10.65
2023-03-29T17:19:40.615Z,9.93
2023-03-29T17:22:42.350Z,9.88
2023-03-29T17:25:45.603Z,7.13
2023-03-29T17:28:48.865Z,7.72
2023-03-29T17:31:51.024Z,11.57
2023-03-29T17:34:53.092Z,14.38
2023-03-29T17:37:55.466Z,16.45
2023-03-29T17:40:59.446Z,14.25
2023-03-29T17:44:01.825Z,18.27
2023-03-29T17:47:04.140Z,18.73
2023-03-29T17:50:08.307Z,14.00
2023-03-29T17:53:11.952Z,14.02
2023-03-29T17:56:16.033Z,12.52
2023-03-29T17:59:17.925Z,12.85
2023-03-29T18:02:22.837Z,12.82
2023-03-29T18:05:26.065Z,13.65
2023-03-29T18:08:28.402Z,14.20
2023-03-29T18:11:32.394Z,15.70
2023-03-29T18:14:35.146Z,16.67
2023-03-29T18:17:38.012Z,25.58
2023-03-29T18:20:40.966Z,24.88
2023-03-29T18:23:45.529Z,30.60
2023-03-29T18:26:49.598Z,33.78
2023-03-29T18:29:52.587Z,38.45
2023-03-29T18:32:57.247Z,31.40
2023-03-29T18:35:59.907Z,30.10
2023-03-29T18:39:02.566Z,17.80
2023-03-29T18:42:06.381Z,13.18
2023-03-29T18:45:12.209Z,14.95
2023-03-29T18:48:15.235Z,16.95
2023-03-29T18:51:19.124Z,12.15
2023-03-29T18:57:25.692Z,7.57
2023-03-29T19:00:28.762Z,8.25
2023-03-29T19:03:35.068Z,8.63
2023-03-29T19:06:37.594Z,7.47
2023-03-29T19:09:40.252Z,8.52
2023-03-29T19:12:44.255Z,9.43
2023-03-29T19:15:49.538Z,8.38
2023-03-29T19:18:54.242Z,8.20
2023-03-29T19:21:59.846Z,9.02
2023-03-29T19:25:05.120Z,10.30
2023-03-29T19:28:10.636Z,9.00
2023-03-29T19:31:13.716Z,9.80
2023-03-29T19:34:18.552Z,9.90
2023-03-29T19:37:21.442Z,10.10
2023-03-29T19:40:24.465Z,10.23
2023-03-29T19:43:29.197Z,13.10
2023-03-29T19:46:32.658Z,12.60
2023-03-29T19:49:35.442Z,12.80
2023-03-29T19:52:39.945Z,12.32
2023-03-29T19:55:44.326Z,14.95
2023-03-29T19:58:48.872Z,34.25
2023-03-29T20:01:51.334Z,35.42
2023-03-29T20:04:53.400Z,24.08
2023-03-29T20:07:55.279Z,14.65
2023-03-29T20:10:58.502Z,12.65
2023-03-29T20:14:02.058Z,11.63
2023-03-29T20:17:04.392Z,10.70
2023-03-29T20:20:07.996Z,8.90
2023-03-29T20:23:10.040Z,9.63
2023-03-29T20:26:12.475Z,8.68
2023-03-29T20:29:16.018Z,8.18
2023-03-29T20:32:18.432Z,8.30
2023-03-29T20:35:20.454Z,7.40
2023-03-29T20:38:22.574Z,8.57
2023-03-29T20:41:24.638Z,9.13
2023-03-29T20:44:27.938Z,10.45
2023-03-29T20:47:29.960Z,12.73
2023-03-29T20:50:31.705Z,13.77
2023-03-29T20:53:33.392Z,16.77
2023-03-29T20:56:36.898Z,16.08
2023-03-29T20:59:40.077Z,16.08
2023-03-29T21:02:41.870Z,13.18
2023-03-29T21:05:43.637Z,11.20
2023-03-29T21:08:46.359Z,10.07
2023-03-29T21:11:48.411Z,12.50
2023-03-29T21:14:51.530Z,10.52
2023-03-29T21:17:53.307Z,9.98
2023-03-29T21:20:55.200Z,8.73
2023-03-29T21:23:56.950Z,8.90
2023-03-29T21:26:58.774Z,10.88
2023-03-29T21:30:02.166Z,9.93
2023-03-29T21:33:03.966Z,10.43
2023-03-29T21:36:06.023Z,9.95
2023-03-29T21:39:07.735Z,9.48
2023-03-29T21:42:09.439Z,8.38
2023-03-29T21:45:12.629Z,7.53
2023-03-29T21:48:14.358Z,7.28
2023-03-29T21:51:16.073Z,7.10
2023-03-29T21:54:17.911Z,6.85
2023-03-29T21:57:19.936Z,6.53
2023-03-29T22:00:23.143Z,6.70
2023-03-29T22:03:24.914Z,8.05
2023-03-29T22:06:26.633Z,7.55
2023-03-29T22:09:28.391Z,8.15
2023-03-29T22:12:31.772Z,7.80
2023-03-29T22:15:34.919Z,7.93
2023-03-29T22:18:37.831Z,7.63
2023-03-29T22:21:39.533Z,6.68
2023-03-29T22:24:41.680Z,7.10
2023-03-29T22:27:44.046Z,6.07
2023-03-29T22:30:47.131Z,5.53
2023-03-29T22:33:49.316Z,6.35
2023-03-29T22:36:51.184Z,6.00
2023-03-29T22:39:53.187Z,6.68
2023-03-29T22:42:55.217Z,11.00
2023-03-29T22:45:58.494Z,8.98
2023-03-29T22:49:00.307Z,6.05
2023-03-29T22:52:02.038Z,6.70
2023-03-29T22:55:04.343Z,7.13
2023-03-29T22:58:06.443Z,7.53
2023-03-29T23:01:09.738Z,7.05
2023-03-29T23:04:11.556Z,7.20
2023-03-29T23:07:13.379Z,7.40
2023-03-29T23:10:15.439Z,7.72
2023-03-29T23:13:18.273Z,7.18
2023-03-29T23:16:21.388Z,7.38
2023-03-29T23:19:23.175Z,7.18
2023-03-29T23:22:24.949Z,7.82
2023-03-29T23:25:27.606Z,9.02
2023-03-29T23:28:29.854Z,9.50
2023-03-29T23:31:32.990Z,9.18
2023-03-29T23:34:34.707Z,7.68
2023-03-29T23:37:36.396Z,6.82
2023-03-29T23:40:38.091Z,7.45
2023-03-29T23:43:41.279Z,6.32
2023-03-29T23:46:44.838Z,5.63
2023-03-29T23:49:46.550Z,6.20
2023-03-29T23:52:48.465Z,5.97
2023-03-29T23:55:50.342Z,6.88
2023-03-29T23:58:52.068Z,5.75
